createdAt,value
2023-04-06T00:01:21.937Z,24.38
2023-04-06T00:03:49.720Z,24.62
2023-04-06T00:06:17.476Z,24.54
2023-04-06T00:08:45.270Z,24.61
2023-04-06T00:11:11.927Z,24.89
2023-04-06T00:13:38.578Z,25.00
2023-04-06T00:16:06.475Z,24.93
2023-04-06T00:18:33.382Z,25.01
2023-04-06T00:21:00.035Z,25.18
2023-04-06T00:23:26.841Z,25.32
2023-04-06T00:25:53.616Z,25.06
2023-04-06T00:28:25.578Z,24.98
2023-04-06T00:30:55.652Z,25.16
2023-04-06T00:33:22.857Z,25.13
2023-04-06T00:35:49.860Z,25.23
2023-04-06T00:38:16.751Z,25.39
2023-04-06T00:40:44.772Z,25.35
2023-04-06T00:43:12.229Z,25.30
2023-04-06T00:45:39.951Z,25.30
2023-04-06T00:48:07.529Z,25.13
2023-04-06T00:50:35.552Z,24.54
2023-04-06T00:53:02.318Z,24.92
2023-04-06T00:55:31.207Z,24.84
2023-04-06T00:57:59.064Z,24.50
2023-04-06T01:00:31.198Z,24.47
2023-04-06T01:03:14.517Z,24.14
2023-04-06T01:05:44.413Z,24.29
2023-04-06T01:08:19.010Z,24.57
2023-04-06T01:10:45.814Z,24.49
2023-04-06T01:13:23.472Z,24.59
2023-04-06T01:15:55.462Z,24.79
2023-04-06T01:18:28.619Z,24.84
2023-04-06T01:21:03.070Z,24.72
2023-04-06T01:23:29.940Z,24.34
2023-04-06T01:25:56.678Z,24.01
2023-04-06T01:28:24.640Z,24.21
2023-04-06T01:30:55.976Z,24.19
2023-04-06T01:33:41.563Z,24.13
2023-04-06T01:36:12.016Z,24.07
2023-04-06T01:38:41.997Z,23.86
2023-04-06T01:41:09.352Z,23.54
2023-04-06T01:43:46.135Z,23.89
2023-04-06T01:46:13.821Z,23.86
2023-04-06T01:48:43.283Z,24.10
2023-04-06T01:51:31.841Z,24.08
2023-04-06T01:54:01.227Z,24.18
2023-04-06T01:56:37.627Z,24.49
2023-04-06T01:59:13.570Z,24.45
2023-04-06T02:01:42.565Z,24.02
2023-04-06T02:04:10.735Z,23.88
2023-04-06T02:06:38.039Z,24.00
2023-04-06T02:09:05.811Z,24.15
2023-04-06T02:11:32.798Z,24.33
2023-04-06T02:14:07.235Z,24.68
2023-04-06T02:16:47.922Z,24.51
2023-04-06T02:19:14.665Z,24.79
2023-04-06T02:21:47.865Z,24.49
2023-04-06T02:24:15.032Z,24.36
2023-04-06T02:26:41.859Z,24.47
2023-04-06T02:32:14.985Z,20.00
2023-04-06T02:34:43.030Z,21.66
2023-04-06T02:37:12.811Z,21.74
2023-04-06T02:39:41.489Z,21.88
2023-04-06T02:42:10.571Z,22.24
2023-04-06T02:44:38.758Z,22.55
2023-04-06T02:47:06.844Z,22.81
2023-04-06T02:49:35.017Z,22.78
2023-04-06T02:52:03.467Z,22.86
2023-04-06T02:54:35.444Z,22.84
2023-04-06T02:57:03.859Z,22.95
2023-04-06T02:59:39.595Z,22.97
2023-04-06T03:02:18.134Z,22.99
2023-04-06T03:04:46.871Z,23.23
2023-04-06T03:07:25.265Z,23.30
2023-04-06T03:09:54.400Z,23.39
2023-04-06T03:12:23.255Z,23.25
2023-04-06T03:15:12.464Z,22.88
2023-04-06T03:17:44.233Z,23.06
2023-04-06T03:20:18.754Z,23.21
2023-04-06T03:22:51.611Z,23.28
2023-04-06T03:25:21.484Z,23.36
2023-04-06T03:27:49.790Z,23.43
2023-04-06T03:30:19.912Z,23.41
2023-04-06T03:32:49.710Z,23.56
2023-04-06T03:35:17.954Z,23.58
2023-04-06T03:37:48.646Z,23.63
2023-04-06T03:40:17.222Z,23.69
2023-04-06T03:42:45.214Z,23.72
2023-04-06T03:45:15.317Z,23.74
2023-04-06T03:47:48.174Z,23.67
2023-04-06T03:50:16.694Z,23.80
2023-04-06T03:52:48.432Z,23.70
2023-04-06T03:55:17.534Z,23.49
2023-04-06T03:57:45.453Z,23.42
2023-04-06T04:00:16.678Z,23.28
2023-04-06T04:02:46.143Z,23.23
2023-04-06T04:05:14.776Z,23.26
2023-04-06T04:07:44.654Z,23.46
2023-04-06T04:10:14.828Z,23.44
2023-04-06T04:12:43.404Z,23.31
2023-04-06T04:15:17.219Z,23.60
2023-04-06T04:17:57.938Z,23.77
2023-04-06T04:20:26.625Z,23.72
2023-04-06T04:22:58.174Z,23.76
2023-04-06T04:25:26.963Z,23.85
2023-04-06T04:27:56.048Z,23.91
2023-04-06T04:30:24.951Z,24.11
2023-04-06T04:32:53.003Z,24.10
2023-04-06T04:35:22.704Z,24.08
2023-04-06T04:37:52.328Z,24.30
2023-04-06T04:40:21.471Z,24.29
2023-04-06T04:42:53.304Z,23.89
2023-04-06T04:45:32.055Z,24.00
2023-04-06T04:48:03.125Z,23.92
2023-04-06T04:50:37.409Z,24.13
2023-04-06T04:53:08.511Z,24.17
2023-04-06T04:55:36.488Z,24.22
2023-04-06T04:58:05.601Z,24.21
2023-04-06T05:00:47.441Z,23.98
2023-04-06T05:03:23.200Z,24.03
2023-04-06T05:05:58.368Z,24.04
2023-04-06T05:08:28.074Z,24.08
2023-04-06T05:10:59.513Z,24.37
2023-04-06T05:13:31.651Z,24.64
2023-04-06T05:16:00.109Z,24.58
2023-04-06T05:18:32.070Z,24.15
2023-04-06T05:21:00.505Z,24.05
2023-04-06T05:23:34.671Z,24.01
2023-04-06T05:26:03.511Z,24.26
2023-04-06T05:28:32.036Z,24.46
2023-04-06T05:31:02.184Z,24.70
2023-04-06T05:33:35.011Z,24.60
2023-04-06T05:36:14.997Z,24.77
2023-04-06T05:38:46.594Z,25.04
2023-04-06T05:41:35.168Z,25.17
2023-04-06T05:44:03.190Z,25.13
2023-04-06T05:46:31.853Z,25.16
2023-04-06T05:49:01.290Z,25.19
2023-04-06T05:51:32.276Z,24.81
2023-04-06T05:54:00.496Z,25.08
2023-04-06T05:56:31.276Z,25.36
2023-04-06T05:58:59.443Z,25.63
2023-04-06T06:01:31.587Z,25.81
2023-04-06T06:04:03.292Z,25.70
2023-04-06T06:06:33.397Z,25.60
2023-04-06T06:09:10.571Z,25.42
2023-04-06T06:11:45.995Z,25.36
2023-04-06T06:14:15.241Z,25.26
2023-04-06T06:16:43.555Z,25.07
2023-04-06T06:19:13.534Z,24.57
2023-04-06T06:21:42.527Z,25.22
2023-04-06T06:24:11.390Z,26.06
2023-04-06T06:26:40.971Z,26.99
2023-04-06T06:29:14.019Z,27.28
2023-04-06T06:31:42.531Z,27.43
2023-04-06T06:34:11.398Z,27.27
2023-04-06T06:36:40.469Z,27.17
2023-04-06T06:39:10.456Z,27.11
2023-04-06T06:41:38.861Z,26.79
2023-04-06T06:44:07.603Z,27.03
2023-04-06T06:46:42.507Z,26.82
2023-04-06T06:49:13.323Z,26.78
2023-04-06T06:51:41.581Z,26.71
2023-04-06T06:54:10.086Z,26.57
2023-04-06T06:56:39.171Z,26.54
2023-04-06T06:59:08.791Z,26.46
2023-04-06T07:01:37.903Z,26.40
2023-04-06T07:04:08.629Z,26.54
2023-04-06T07:06:40.671Z,26.36
2023-04-06T07:09:10.718Z,26.30
2023-04-06T07:11:38.938Z,26.21
2023-04-06T07:14:07.887Z,26.13
2023-04-06T07:16:39.953Z,25.98
2023-04-06T07:19:07.981Z,26.13
2023-04-06T07:21:37.738Z,26.31
2023-04-06T07:24:06.240Z,26.35
2023-04-06T07:26:34.456Z,26.58
2023-04-06T07:29:04.928Z,26.68
2023-04-06T07:31:33.589Z,27.08
2023-04-06T07:34:02.664Z,27.13
2023-04-06T07:36:36.825Z,26.90
2023-04-06T07:39:05.850Z,27.04
2023-04-06T07:41:33.998Z,26.40
2023-04-06T07:44:02.433Z,26.32
2023-04-06T07:46:31.086Z,26.53
2023-04-06T07:49:04.506Z,26.56
2023-04-06T08:57:57.050Z,18.41
2023-04-06T09:00:24.359Z,20.71
2023-04-06T09:02:54.587Z,20.90
2023-04-06T09:05:22.288Z,20.92
2023-04-06T09:07:49.372Z,21.11
2023-04-06T09:10:22.124Z,21.37
2023-04-06T09:13:08.376Z,21.33
2023-04-06T09:15:48.653Z,21.12
2023-04-06T09:18:31.863Z,21.00
2023-04-06T09:21:03.180Z,21.01
2023-04-06T09:23:34.395Z,21.11
2023-04-06T09:26:14.681Z,20.92
2023-04-06T09:28:56.569Z,20.82
2023-04-06T09:31:30.802Z,20.54
2023-04-06T09:33:59.571Z,20.40
2023-04-06T09:36:35.762Z,20.40
2023-04-06T09:39:05.348Z,20.40
2023-04-06T09:44:55.509Z,20.60
2023-04-06T09:47:29.753Z,20.51
2023-04-06T09:50:05.903Z,20.51
2023-04-06T09:52:38.059Z,20.51
2023-04-06T09:55:05.756Z,20.49
2023-04-06T09:58:08.045Z,20.86
2023-04-06T10:00:42.053Z,20.66
2023-04-06T10:03:39.237Z,20.59
2023-04-06T10:06:18.349Z,20.39
2023-04-06T10:08:49.338Z,20.27
2023-04-06T10:11:19.098Z,20.22
2023-04-06T10:13:48.209Z,20.43
2023-04-06T10:16:15.852Z,20.52
2023-04-06T10:18:51.967Z,20.75
2023-04-06T10:21:22.376Z,20.72
2023-04-06T10:23:52.725Z,20.78
2023-04-06T10:26:21.124Z,20.74
2023-04-06T10:28:50.680Z,20.79
2023-04-06T10:31:26.672Z,20.92
2023-04-06T10:34:03.154Z,20.98
2023-04-06T10:36:35.889Z,20.73
2023-04-06T10:39:11.624Z,20.81
2023-04-06T10:41:43.221Z,20.97
2023-04-06T10:44:22.697Z,20.93
2023-04-06T10:46:56.441Z,20.80
2023-04-06T10:49:27.216Z,20.79
2023-04-06T10:52:01.575Z,20.31
2023-04-06T10:54:29.471Z,20.34
2023-04-06T10:56:57.630Z,20.57
2023-04-06T10:59:26.476Z,20.68
2023-04-06T11:01:57.145Z,20.76
2023-04-06T11:04:25.459Z,21.02
2023-04-06T11:06:59.078Z,20.74
2023-04-06T11:09:27.055Z,21.07
2023-04-06T11:11:54.202Z,21.14
2023-04-06T11:14:26.906Z,21.27
2023-04-06T11:16:54.525Z,20.99
2023-04-06T11:19:21.715Z,20.75
2023-04-06T11:22:05.287Z,20.29
2023-04-06T11:24:45.237Z,20.32
2023-04-06T11:27:16.413Z,20.22
2023-04-06T11:29:44.233Z,20.33
2023-04-06T11:32:22.662Z,20.48
2023-04-06T11:35:11.502Z,20.92
2023-04-06T11:37:39.053Z,21.20
2023-04-06T11:40:10.311Z,21.28
2023-04-06T11:42:51.898Z,21.41
2023-04-06T11:45:27.124Z,21.44
2023-04-06T11:48:00.101Z,21.30
2023-04-06T11:50:36.078Z,21.36
2023-04-06T11:53:08.041Z,21.20
2023-04-06T11:55:40.460Z,21.27
2023-04-06T11:58:09.811Z,21.45
2023-04-06T12:00:45.815Z,21.12
2023-04-06T12:03:17.865Z,20.86
2023-04-06T12:05:50.574Z,20.93
2023-04-06T12:08:31.941Z,20.84
2023-04-06T12:10:59.963Z,21.17
2023-04-06T12:13:29.015Z,21.11
2023-04-06T12:15:55.844Z,20.98
2023-04-06T12:18:24.080Z,21.20
2023-04-06T12:20:54.399Z,21.10
2023-04-06T12:23:24.823Z,21.14
2023-04-06T12:25:56.472Z,21.04
2023-04-06T12:28:27.306Z,20.87
2023-04-06T12:30:55.792Z,20.78
2023-04-06T12:33:30.502Z,20.78
2023-04-06T12:35:58.505Z,20.76
2023-04-06T12:38:39.637Z,20.63
2023-04-06T12:41:19.102Z,20.49
2023-04-06T12:43:46.332Z,20.77
2023-04-06T12:46:15.878Z,20.72
2023-04-06T12:48:45.059Z,20.96
2023-04-06T12:51:12.890Z,21.12
2023-04-06T12:53:43.031Z,21.20
2023-04-06T12:56:14.245Z,21.31
2023-04-06T12:58:42.543Z,21.33
2023-04-06T13:01:12.021Z,21.37
2023-04-06T13:03:40.716Z,21.35
2023-04-06T13:06:08.956Z,21.11
2023-04-06T13:08:38.442Z,21.00
2023-04-06T13:11:05.900Z,21.08
2023-04-06T13:13:34.072Z,21.10
2023-04-06T13:16:04.557Z,21.08
2023-04-06T13:18:34.756Z,21.04
2023-04-06T13:21:02.154Z,21.23
2023-04-06T13:23:29.793Z,21.36
2023-04-06T13:26:03.993Z,21.22
2023-04-06T13:28:31.992Z,21.40
2023-04-06T13:31:00.018Z,21.43
2023-04-06T13:33:31.908Z,21.49
2023-04-06T13:35:59.442Z,21.51
2023-04-06T13:38:36.344Z,21.89
2023-04-06T13:41:21.610Z,22.13
2023-04-06T13:43:49.384Z,22.22
2023-04-06T13:46:27.123Z,21.93
2023-04-06T13:48:55.229Z,22.09
2023-04-06T13:51:22.316Z,22.35
2023-04-06T13:53:53.092Z,22.70
2023-04-06T13:56:20.292Z,22.78
2023-04-06T13:58:48.799Z,22.72
2023-04-06T14:01:17.439Z,22.92
2023-04-06T14:03:50.198Z,22.94
2023-04-06T14:08:50.968Z,22.63
2023-04-06T14:11:18.131Z,22.65
2023-04-06T14:13:47.005Z,22.73
2023-04-06T14:16:15.939Z,22.99
2023-04-06T14:18:47.579Z,23.17
2023-04-06T14:21:15.498Z,23.01
2023-04-06T14:23:43.364Z,23.08
2023-04-06T14:26:10.117Z,22.98
2023-04-06T14:28:38.781Z,23.12
2023-04-06T14:31:16.420Z,23.21
2023-04-06T14:33:45.100Z,23.16
2023-04-06T14:36:11.929Z,23.21
2023-04-06T14:38:39.772Z,23.14
2023-04-06T14:41:08.725Z,23.22
2023-04-06T14:43:36.294Z,22.60
2023-04-06T14:46:03.116Z,22.39
2023-04-06T14:48:30.273Z,22.02
2023-04-06T14:50:57.019Z,21.96
2023-04-06T14:53:24.948Z,21.56
2023-04-06T14:55:52.579Z,21.74
2023-04-06T14:58:20.189Z,21.79
2023-04-06T15:00:47.342Z,21.90
2023-04-06T15:03:15.889Z,21.96
2023-04-06T15:05:42.928Z,21.82
2023-04-06T15:08:10.215Z,21.97
2023-04-06T15:10:37.130Z,22.35
2023-04-06T15:13:11.003Z,21.79
2023-04-06T15:15:38.432Z,21.72
2023-04-06T15:18:05.280Z,21.94
2023-04-06T15:20:34.240Z,22.00
2023-04-06T15:23:01.972Z,22.14
2023-04-06T15:25:28.616Z,21.98
2023-04-06T15:27:55.791Z,22.09
2023-04-06T15:30:22.848Z,22.44
2023-04-06T15:32:57.891Z,22.58
2023-04-06T15:35:25.793Z,22.54
2023-04-06T15:37:52.551Z,22.55
2023-04-06T15:40:20.358Z,22.08
2023-04-06T15:42:47.096Z,22.47
2023-04-06T15:45:13.753Z,22.70
2023-04-06T15:47:41.045Z,22.60
2023-04-06T15:50:07.863Z,22.92
2023-04-06T15:52:36.028Z,22.64
2023-04-06T15:55:03.146Z,22.61
2023-04-06T15:57:29.857Z,22.42
2023-04-06T15:59:57.731Z,22.51
2023-04-06T16:02:25.188Z,22.20
2023-04-06T16:04:55.943Z,21.90
2023-04-06T16:07:22.759Z,21.96
2023-04-06T16:09:50.923Z,22.12
2023-04-06T16:12:18.389Z,22.06
2023-04-06T16:14:46.125Z,22.09
2023-04-06T16:17:13.573Z,22.00
2023-04-06T16:19:41.070Z,22.65
2023-04-06T16:22:07.881Z,22.70
2023-04-06T16:24:34.667Z,22.73
2023-04-06T16:27:01.411Z,22.52
2023-04-06T16:29:27.993Z,22.29
2023-04-06T16:31:54.632Z,22.52
2023-04-06T16:34:21.411Z,22.54
2023-04-06T16:36:48.146Z,22.60
2023-04-06T16:39:16.377Z,22.52
2023-04-06T16:41:42.941Z,22.30
2023-04-06T16:44:10.690Z,22.52
2023-04-06T16:46:38.282Z,22.37
2023-04-06T16:49:07.842Z,22.44
2023-04-06T16:51:36.488Z,22.45
2023-04-06T16:54:03.660Z,22.51
2023-04-06T16:56:31.212Z,22.34
2023-04-06T16:58:57.806Z,22.60
2023-04-06T17:01:26.251Z,22.60
2023-04-06T17:03:53.471Z,22.92
2023-04-06T17:06:20.612Z,22.77
2023-04-06T17:08:48.759Z,22.86
2023-04-06T17:11:19.048Z,22.99
2023-04-06T17:13:51.219Z,22.24
2023-04-06T17:16:18.911Z,22.23
2023-04-06T17:18:45.777Z,21.83
2023-04-06T17:21:16.504Z,21.38
2023-04-06T17:23:43.756Z,21.03
2023-04-06T17:26:10.910Z,21.16
2023-04-06T17:28:37.675Z,21.19
2023-04-06T17:31:11.449Z,20.88
2023-04-06T17:33:39.271Z,20.92
2023-04-06T17:36:07.308Z,20.71
2023-04-06T17:38:35.117Z,20.64
2023-04-06T17:41:04.408Z,20.55
2023-04-06T17:43:31.607Z,20.57
2023-04-06T17:45:58.196Z,20.82
2023-04-06T17:48:26.115Z,21.27
2023-04-06T17:50:52.900Z,21.34
2023-04-06T17:53:19.985Z,21.29
2023-04-06T17:55:47.204Z,21.19
2023-04-06T17:58:15.014Z,21.47
2023-04-06T18:00:41.896Z,21.32
2023-04-06T18:03:09.235Z,21.33
2023-04-06T18:05:36.048Z,21.35
2023-04-06T18:08:02.593Z,21.51
2023-04-06T18:10:29.858Z,21.46
2023-04-06T18:12:56.769Z,21.23
2023-04-06T18:15:23.339Z,21.40
2023-04-06T18:17:53.955Z,21.35
2023-04-06T18:20:20.676Z,21.39
2023-04-06T18:22:47.407Z,21.38
2023-04-06T18:25:13.908Z,21.13
2023-04-06T18:27:40.819Z,21.24
2023-04-06T18:30:12.322Z,21.29
2023-04-06T18:32:39.263Z,21.06
2023-04-06T18:35:08.536Z,20.54
2023-04-06T18:37:35.992Z,20.61
2023-04-06T18:40:03.536Z,20.77
2023-04-06T18:42:30.276Z,20.83
2023-04-06T18:44:56.842Z,20.96
2023-04-06T18:47:23.840Z,21.03
2023-04-06T18:49:50.635Z,21.12
2023-04-06T18:52:17.289Z,20.91
2023-04-06T18:54:43.893Z,20.88
2023-04-06T18:57:10.843Z,20.94
2023-04-06T18:59:37.391Z,20.73
2023-04-06T19:02:04.066Z,20.60
2023-04-06T19:04:31.399Z,20.76
2023-04-06T19:07:00.121Z,20.86
2023-04-06T19:09:30.028Z,20.80
2023-04-06T19:11:57.624Z,20.52
2023-04-06T19:14:24.251Z,20.11
2023-04-06T19:16:53.085Z,20.22
2023-04-06T19:19:20.182Z,20.47
2023-04-06T19:21:47.423Z,20.52
2023-04-06T19:24:14.309Z,20.49
2023-04-06T19:26:41.948Z,20.33
2023-04-06T19:29:14.121Z,20.38
2023-04-06T19:31:41.716Z,20.14
2023-04-06T19:34:08.246Z,20.28
2023-04-06T19:36:35.669Z,20.20
2023-04-06T19:39:02.263Z,20.48
2023-04-06T19:41:29.189Z,20.41
2023-04-06T19:43:55.985Z,20.22
2023-04-06T19:46:22.553Z,19.76
2023-04-06T19:48:49.352Z,19.47
2023-04-06T19:51:16.182Z,19.87
2023-04-06T19:53:42.978Z,19.88
2023-04-06T19:56:09.988Z,19.94
2023-04-06T19:58:37.481Z,19.39
2023-04-06T20:01:04.529Z,19.23
2023-04-06T20:03:32.076Z,19.41
2023-04-06T20:05:59.096Z,19.45
2023-04-06T20:08:26.337Z,19.31
2023-04-06T20:11:03.181Z,19.17
2023-04-06T20:13:30.400Z,19.54
2023-04-06T20:15:58.346Z,19.11
2023-04-06T20:18:31.227Z,19.14
2023-04-06T20:20:57.979Z,18.94
2023-04-06T20:23:25.111Z,18.72
2023-04-06T20:25:55.463Z,18.72
2023-04-06T20:28:24.309Z,18.89
2023-04-06T20:30:57.253Z,18.64
2023-04-06T20:33:24.181Z,18.53
2023-04-06T20:36:08.958Z,18.63
2023-04-06T20:38:38.257Z,18.85
2023-04-06T20:41:05.757Z,18.88
2023-04-06T20:43:32.454Z,18.84
2023-04-06T20:46:01.098Z,18.61
2023-04-06T20:50:59.227Z,18.72
2023-04-06T20:53:26.240Z,18.70
2023-04-06T20:55:52.860Z,18.77
2023-04-06T20:58:23.933Z,18.68
2023-04-06T21:00:50.476Z,18.82
2023-04-06T21:03:36.966Z,18.84
2023-04-06T21:06:03.591Z,18.95
2023-04-06T21:08:30.330Z,19.08
2023-04-06T21:10:58.351Z,18.90
2023-04-06T21:14:41.432Z,15.10
2023-04-06T21:17:11.009Z,16.30
2023-04-06T21:19:38.209Z,16.58
2023-04-06T21:22:04.874Z,16.56
2023-04-06T21:24:31.521Z,17.06
2023-04-06T21:26:58.468Z,17.18
2023-04-06T21:29:31.176Z,17.22
2023-04-06T21:31:58.326Z,17.04
2023-04-06T21:34:25.106Z,17.17
2023-04-06T21:36:54.237Z,17.53
2023-04-06T21:39:23.417Z,17.62
2023-04-06T21:41:50.519Z,17.58
2023-04-06T21:44:17.976Z,17.70
2023-04-06T21:46:44.576Z,17.67
2023-04-06T21:49:11.243Z,17.43
2023-04-06T21:51:37.898Z,17.60
2023-04-06T21:54:05.125Z,17.64
2023-04-06T21:56:31.774Z,17.66
2023-04-06T21:58:58.347Z,17.78
2023-04-06T22:01:25.197Z,17.66
2023-04-06T22:03:55.123Z,17.78
2023-04-06T22:06:25.398Z,17.83
2023-04-06T22:08:51.988Z,17.79
2023-04-06T22:11:20.509Z,17.61
2023-04-06T22:13:47.078Z,17.49
2023-04-06T22:16:14.687Z,17.48
2023-04-06T22:18:45.166Z,17.61
2023-04-06T22:21:11.678Z,17.52
2023-04-06T22:23:41.484Z,17.47
2023-04-06T22:26:10.073Z,17.24
2023-04-06T22:28:37.286Z,17.31
2023-04-06T22:31:04.145Z,17.51
2023-04-06T22:33:31.462Z,17.30
2023-04-06T22:35:58.359Z,17.31
2023-04-06T22:38:25.339Z,17.32
2023-04-06T22:40:52.989Z,17.51
2023-04-06T22:43:19.628Z,17.46
2023-04-06T22:45:46.252Z,17.70
2023-04-06T22:48:13.234Z,17.69
2023-04-06T22:50:39.835Z,17.59
2023-04-06T22:53:06.455Z,17.70
2023-04-06T22:55:34.024Z,17.71
2023-04-06T22:58:00.855Z,17.35
2023-04-06T23:00:27.388Z,17.14
2023-04-06T23:02:55.659Z,16.92
2023-04-06T23:05:22.564Z,16.96
2023-04-06T23:07:50.644Z,16.79
2023-04-06T23:10:28.744Z,16.83
2023-04-06T23:12:56.609Z,17.38
2023-04-06T23:15:23.431Z,17.40
2023-04-06T23:17:52.468Z,17.48
2023-04-06T23:20:19.897Z,17.46
2023-04-06T23:22:46.426Z,17.43
2023-04-06T23:25:13.068Z,17.53
2023-04-06T23:27:40.015Z,17.35
2023-04-06T23:30:08.684Z,17.24
2023-04-06T23:32:36.876Z,17.55
2023-04-06T23:35:03.804Z,17.49
2023-04-06T23:37:30.851Z,17.32
2023-04-06T23:39:57.694Z,17.36
2023-04-06T23:42:28.913Z,17.54
2023-04-06T23:44:56.692Z,17.69
2023-04-06T23:47:23.328Z,17.54
2023-04-06T23:49:50.377Z,17.39
2023-04-06T23:52:16.942Z,17.12
2023-04-06T23:54:45.874Z,17.30
2023-04-06T23:57:12.612Z,17.25
2023-04-06T23:59:39.510Z,17.22
